Time;durP1;ratioP1;P1;durP2;ratioP2;P2;SDS_P1;SDS_P2;PMS_P1;PMS_P2;Temp;Humidity;BMP_temperature;BMP_pressure;BME280_temperature;BME280_humidity;BME280_pressure;Samples;Min_cycle;Max_cycle;Signal;HPM_P1;HPM_P2
2023/04/26 00:01:59;;;;;;;1.10;0.20;;;7.40;99.90;;;;;;5027240;28;20025;-73
2023/04/26 00:04:27;;;;;;;1.00;0.73;;;7.30;99.90;;;;;;5023690;28;20526;-74
2023/04/26 00:06:53;;;;;;;0.50;0.30;;;7.60;99.90;;;;;;5026386;28;20380;-74
2023/04/26 00:09:19;;;;;;;0.93;0.40;;;8.00;98.90;;;;;;5030868;28;20026;-73
2023/04/26 00:11:45;;;;;;;0.50;0.30;;;8.00;98.80;;;;;;5029106;28;20065;-73
2023/04/26 00:14:10;;;;;;;1.10;0.32;;;7.70;99.20;;;;;;5030919;28;20044;-74
2023/04/26 00:16:36;;;;;;;0.88;0.30;;;7.60;99.90;;;;;;5028569;28;20512;-73
2023/04/26 00:19:03;;;;;;;0.77;0.30;;;7.60;99.40;;;;;;5029988;28;20033;-74
2023/04/26 00:21:30;;;;;;;0.70;0.25;;;7.90;99.40;;;;;;5031595;28;20479;-74
2023/04/26 00:23:56;;;;;;;1.23;0.40;;;8.00;99.10;;;;;;5029966;28;20455;-74
2023/04/26 00:26:22;;;;;;;1.80;0.60;;;8.20;99.30;;;;;;5030857;28;20061;-74
2023/04/26 00:28:47;;;;;;;1.33;0.45;;;8.20;98.60;;;;;;5030795;28;20042;-74
2023/04/26 00:31:16;;;;;;;2.10;1.00;;;8.10;99.90;;;;;;5028377;28;20431;-73
2023/04/26 00:33:43;;;;;;;2.67;0.85;;;8.10;99.90;;;;;;5031799;28;20807;-74
2023/04/26 00:36:09;;;;;;;4.05;1.00;;;8.10;99.90;;;;;;5031482;28;20025;-74
2023/04/26 00:38:34;;;;;;;1.52;0.70;;;8.10;99.90;;;;;;5030950;28;20527;-74
2023/04/26 00:41:00;;;;;;;1.40;0.55;;;8.20;99.90;;;;;;5029763;28;20100;-74
2023/04/26 00:43:26;;;;;;;1.13;0.47;;;8.10;99.90;;;;;;5030095;28;20099;-74
2023/04/26 00:45:52;;;;;;;2.72;0.40;;;8.00;99.90;;;;;;5031180;28;20052;-74
2023/04/26 00:48:19;;;;;;;0.80;0.40;;;8.00;99.40;;;;;;5030559;28;20041;-74
2023/04/26 00:50:46;;;;;;;2.85;0.50;;;7.90;99.60;;;;;;5027072;28;20033;-74
2023/04/26 00:53:13;;;;;;;0.32;0.28;;;8.00;99.70;;;;;;5030809;28;20017;-74
2023/04/26 00:55:40;;;;;;;0.70;0.30;;;7.90;99.30;;;;;;5030502;28;20399;-74
2023/04/26 00:58:06;;;;;;;1.23;0.50;;;8.10;98.90;;;;;;5028765;28;20033;-74
2023/04/26 01:00:32;;;;;;;1.10;0.43;;;8.00;99.50;;;;;;5027294;28;20059;-74
2023/04/26 01:02:58;;;;;;;1.83;0.70;;;8.20;99.10;;;;;;5030221;28;20128;-73
2023/04/26 01:05:23;;;;;;;1.85;0.50;;;8.20;99.80;;;;;;5026450;28;20025;-73
2023/04/26 01:07:49;;;;;;;1.75;0.52;;;8.20;99.40;;;;;;5031890;28;20116;-73
2023/04/26 01:10:16;;;;;;;1.50;0.50;;;8.10;99.90;;;;;;5029185;28;20025;-73
2023/04/26 01:12:42;;;;;;;4.15;0.90;;;8.00;99.90;;;;;;5029429;28;20518;-74
2023/04/26 01:15:09;;;;;;;2.17;0.90;;;7.90;99.90;;;;;;5026266;28;20061;-74
2023/04/26 01:17:36;;;;;;;1.65;0.80;;;7.90;99.90;;;;;;5030309;28;20029;-74
2023/04/26 01:20:02;;;;;;;1.52;0.77;;;7.70;99.90;;;;;;5026808;28;20586;-73
2023/04/26 01:22:32;;;;;;;2.72;0.90;;;7.70;99.90;;;;;;5029516;28;20041;-73
2023/04/26 01:25:00;;;;;;;1.98;0.98;;;7.70;99.90;;;;;;5029412;28;20068;-74
2023/04/26 01:27:26;;;;;;;2.10;1.00;;;7.70;99.90;;;;;;5027560;28;20496;-74
2023/04/26 01:29:52;;;;;;;3.35;1.13;;;7.70;99.90;;;;;;5028694;28;20040;-74
2023/04/26 01:32:17;;;;;;;1.67;0.80;;;7.70;99.90;;;;;;5023377;28;20033;-74
2023/04/26 01:34:43;;;;;;;1.02;0.50;;;7.60;99.90;;;;;;5028052;28;20053;-73
2023/04/26 01:37:09;;;;;;;1.52;0.77;;;7.50;99.90;;;;;;5030120;28;20238;-75
2023/04/26 01:39:35;;;;;;;2.47;0.55;;;7.20;99.90;;;;;;5026489;28;20072;-74
2023/04/26 01:42:01;;;;;;;1.08;0.40;;;7.20;99.90;;;;;;5024372;28;20055;-73
2023/04/26 01:44:27;;;;;;;1.05;0.40;;;7.00;99.90;;;;;;5028417;28;20046;-74
2023/04/26 01:46:53;;;;;;;2.72;0.55;;;7.00;99.90;;;;;;5027716;28;20549;-74
2023/04/26 01:49:19;;;;;;;1.05;0.30;;;6.80;99.90;;;;;;5029322;28;20556;-73
2023/04/26 01:51:44;;;;;;;0.68;0.40;;;6.50;99.90;;;;;;5027862;28;20083;-74
2023/04/26 01:54:10;;;;;;;0.38;0.15;;;6.70;99.90;;;;;;5029658;28;20033;-74
2023/04/26 01:56:36;;;;;;;1.20;0.35;;;6.60;99.90;;;;;;5029119;28;20118;-74
2023/04/26 01:59:02;;;;;;;1.25;0.50;;;6.50;99.90;;;;;;5028870;28;20036;-74
2023/04/26 02:01:27;;;;;;;1.10;0.20;;;6.30;99.90;;;;;;5028075;28;20434;-73
2023/04/26 02:03:53;;;;;;;1.13;0.30;;;6.60;99.90;;;;;;5029318;28;20108;-73
2023/04/26 02:06:20;;;;;;;0.82;0.30;;;6.60;99.90;;;;;;5028636;28;20030;-74
2023/04/26 02:08:45;;;;;;;1.00;0.30;;;6.80;99.90;;;;;;5030154;28;20041;-73
2023/04/26 02:11:11;;;;;;;5.25;0.57;;;7.00;99.50;;;;;;5027448;28;20387;-73
2023/04/26 02:13:37;;;;;;;1.65;0.52;;;7.20;99.30;;;;;;5029373;28;20029;-73
2023/04/26 02:16:03;;;;;;;0.32;0.10;;;7.10;99.50;;;;;;5025186;28;20471;-73
2023/04/26 02:18:29;;;;;;;0.70;0.50;;;7.00;99.10;;;;;;5028174;28;20033;-73
2023/04/26 02:20:54;;;;;;;1.15;0.22;;;7.20;98.80;;;;;;5029153;28;20041;-73
2023/04/26 02:23:20;;;;;;;1.10;0.40;;;7.20;98.50;;;;;;5027347;28;20025;-73
2023/04/26 02:25:47;;;;;;;0.43;0.30;;;7.30;98.40;;;;;;5026015;28;20033;-73
2023/04/26 02:28:14;;;;;;;0.43;0.20;;;7.10;99.30;;;;;;5028129;28;20041;-74
2023/04/26 02:30:41;;;;;;;1.02;0.45;;;7.20;98.80;;;;;;5025942;28;20030;-73
2023/04/26 02:33:07;;;;;;;1.10;0.43;;;7.20;99.70;;;;;;5019293;28;20033;-74
2023/04/26 02:35:34;;;;;;;2.10;0.60;;;7.20;99.90;;;;;;5028756;28;20029;-74
2023/04/26 02:37:59;;;;;;;1.58;0.73;;;7.00;99.90;;;;;;5029074;28;20063;-74
2023/04/26 02:40:25;;;;;;;1.25;0.55;;;6.70;99.90;;;;;;5026947;28;20065;-73
2023/04/26 02:42:51;;;;;;;1.05;0.40;;;6.60;99.90;;;;;;5026825;28;20091;-73
2023/04/26 02:45:16;;;;;;;0.40;0.17;;;6.50;99.90;;;;;;5028199;28;20045;-73
2023/04/26 02:47:42;;;;;;;0.50;0.20;;;6.20;99.90;;;;;;5028076;28;20099;-74
2023/04/26 02:50:09;;;;;;;1.90;0.30;;;6.20;99.90;;;;;;5027867;28;20045;-74
2023/04/26 02:52:35;;;;;;;0.35;0.30;;;6.20;99.90;;;;;;5024770;28;20061;-73
2023/04/26 02:55:03;;;;;;;0.30;0.20;;;6.20;99.90;;;;;;5025863;28;20022;-74
2023/04/26 02:57:29;;;;;;;1.83;0.60;;;6.30;99.90;;;;;;5028388;28;20029;-74
2023/04/26 02:59:55;;;;;;;2.90;0.50;;;6.50;99.90;;;;;;5026461;28;20037;-74
2023/04/26 03:02:21;;;;;;;1.00;0.45;;;6.70;99.10;;;;;;5027518;28;20030;-74
2023/04/26 03:04:46;;;;;;;2.75;0.50;;;6.50;99.90;;;;;;5019534;28;20621;-75
2023/04/26 03:07:12;;;;;;;1.48;0.43;;;6.70;99.20;;;;;;5021896;28;20041;-75
2023/04/26 03:09:38;;;;;;;2.30;0.90;;;6.70;99.20;;;;;;5022288;28;20033;-75
2023/04/26 03:12:06;;;;;;;2.15;0.73;;;6.60;99.90;;;;;;5021452;28;20187;-77
2023/04/26 03:14:32;;;;;;;1.90;0.60;;;6.60;99.90;;;;;;5021931;28;20379;-75
2023/04/26 03:16:58;;;;;;;1.13;0.50;;;6.70;99.90;;;;;;5018965;28;20033;-77
2023/04/26 03:19:24;;;;;;;0.90;0.30;;;6.70;99.90;;;;;;5020244;28;20034;-76
2023/04/26 03:21:50;;;;;;;1.25;0.52;;;6.40;99.90;;;;;;5017793;28;20040;-75
2023/04/26 03:24:16;;;;;;;0.63;0.35;;;6.20;99.90;;;;;;5020780;28;20040;-74
2023/04/26 03:26:42;;;;;;;1.15;0.40;;;6.10;99.90;;;;;;5022120;28;20120;-75
2023/04/26 03:29:07;;;;;;;0.40;0.20;;;6.20;99.90;;;;;;5023388;28;20548;-78
2023/04/26 03:31:33;;;;;;;1.17;0.40;;;5.90;99.90;;;;;;5023902;28;20037;-76
2023/04/26 03:33:59;;;;;;;1.17;0.60;;;6.00;99.90;;;;;;5022700;28;20030;-75
2023/04/26 03:36:27;;;;;;;0.32;0.17;;;6.00;99.90;;;;;;5024028;28;20139;-74
2023/04/26 03:38:53;;;;;;;0.50;0.30;;;6.20;99.70;;;;;;5023293;28;20483;-75
2023/04/26 03:41:19;;;;;;;0.25;0.15;;;6.20;99.70;;;;;;5020074;28;20125;-74
2023/04/26 03:43:44;;;;;;;1.38;0.60;;;5.80;99.90;;;;;;5024866;28;20101;-75
2023/04/26 03:46:10;;;;;;;0.52;0.30;;;6.10;99.90;;;;;;5025443;28;20042;-75
2023/04/26 03:48:36;;;;;;;0.88;0.30;;;6.10;99.90;;;;;;5026869;28;20722;-74
2023/04/26 03:51:02;;;;;;;1.80;0.50;;;6.00;99.90;;;;;;5024863;28;20041;-75
2023/04/26 03:53:28;;;;;;;0.60;0.15;;;5.90;99.90;;;;;;5027009;28;20037;-75
2023/04/26 03:55:53;;;;;;;0.55;0.32;;;5.90;99.90;;;;;;5024735;28;20381;-75
2023/04/26 03:58:19;;;;;;;1.33;0.55;;;5.70;99.90;;;;;;5024309;28;20033;-75
2023/04/26 04:00:45;;;;;;;4.47;1.63;;;6.10;99.90;;;;;;5025022;28;20030;-75
2023/04/26 04:03:11;;;;;;;3.70;0.75;;;6.00;99.90;;;;;;5022675;28;20518;-73
2023/04/26 04:05:36;;;;;;;0.88;0.32;;;5.90;99.90;;;;;;5022573;28;20498;-74
2023/04/26 04:08:02;;;;;;;2.15;0.60;;;5.70;99.90;;;;;;5024355;28;20045;-75
2023/04/26 04:10:28;;;;;;;1.00;0.40;;;5.80;99.90;;;;;;5025157;28;20391;-75
2023/04/26 04:12:54;;;;;;;0.85;0.35;;;5.90;99.90;;;;;;5022382;28;20033;-75
2023/04/26 04:15:20;;;;;;;1.30;0.35;;;6.00;99.90;;;;;;5023955;28;20087;-75
2023/04/26 04:17:45;;;;;;;2.00;0.40;;;5.90;99.90;;;;;;5024577;28;20029;-72
2023/04/26 04:20:12;;;;;;;1.00;0.30;;;5.70;99.90;;;;;;5024075;28;20488;-75
2023/04/26 04:22:38;;;;;;;0.88;0.32;;;5.70;99.90;;;;;;5020913;28;20043;-76
2023/04/26 04:25:06;;;;;;;0.52;0.40;;;5.90;99.90;;;;;;5017686;28;20037;-76
2023/04/26 04:27:32;;;;;;;1.10;0.50;;;6.00;99.90;;;;;;5022116;28;20044;-74
2023/04/26 04:29:57;;;;;;;1.30;0.55;;;6.10;99.90;;;;;;5022675;28;20403;-75
2023/04/26 04:32:23;;;;;;;1.48;0.50;;;6.00;99.90;;;;;;5021295;28;20083;-76
2023/04/26 04:34:50;;;;;;;1.33;0.60;;;6.00;99.90;;;;;;5020780;28;20029;-79
2023/04/26 04:37:17;;;;;;;1.70;0.40;;;6.20;99.70;;;;;;5028964;28;20136;-75
2023/04/26 04:39:43;;;;;;;0.77;0.30;;;6.30;99.40;;;;;;5024369;28;20080;-74
2023/04/26 04:42:09;;;;;;;1.33;0.32;;;6.40;99.10;;;;;;5019265;28;20033;-78
2023/04/26 04:44:35;;;;;;;1.00;0.40;;;6.40;99.00;;;;;;5023891;28;20164;-75
2023/04/26 04:47:01;;;;;;;1.33;0.50;;;6.30;99.50;;;;;;5019218;28;20037;-75
2023/04/26 04:49:27;;;;;;;0.73;0.40;;;6.20;99.50;;;;;;5017974;28;20033;-74
2023/04/26 04:51:53;;;;;;;1.13;0.32;;;6.30;99.50;;;;;;5018607;28;20060;-74
2023/04/26 04:54:19;;;;;;;0.90;0.40;;;6.60;98.50;;;;;;5020837;28;20108;-74
2023/04/26 04:56:45;;;;;;;1.17;0.70;;;6.60;98.90;;;;;;5023056;28;20578;-74
2023/04/26 04:59:11;;;;;;;0.38;0.20;;;6.40;98.90;;;;;;5013850;28;20034;-76
2023/04/26 05:01:37;;;;;;;1.10;0.40;;;6.30;98.90;;;;;;5022355;28;20120;-74
2023/04/26 05:04:03;;;;;;;1.20;0.40;;;6.30;99.20;;;;;;5021979;28;20026;-74
2023/04/26 05:06:33;;;;;;;1.05;0.60;;;6.30;99.10;;;;;;5022678;28;20434;-74
2023/04/26 05:08:58;;;;;;;0.40;0.20;;;6.20;99.50;;;;;;5019671;28;20506;-73
2023/04/26 05:11:24;;;;;;;1.33;0.57;;;6.30;99.00;;;;;;5020826;28;20059;-74
2023/04/26 05:13:50;;;;;;;1.75;0.47;;;6.40;99.00;;;;;;5020818;28;20839;-76
2023/04/26 05:16:16;;;;;;;1.10;0.52;;;6.10;99.70;;;;;;5022910;28;20108;-76
2023/04/26 05:18:42;;;;;;;3.03;0.65;;;6.00;99.90;;;;;;5019881;28;20025;-73
2023/04/26 05:21:08;;;;;;;2.38;0.50;;;5.90;99.90;;;;;;5018457;28;20223;-75
2023/04/26 05:23:33;;;;;;;2.30;0.60;;;5.90;99.90;;;;;;5020657;28;20132;-77
2023/04/26 05:26:06;;;;;;;2.47;0.30;;;6.00;99.90;;;;;;5023761;28;20171;-74
2023/04/26 05:28:32;;;;;;;2.95;0.50;;;5.90;99.90;;;;;;5024015;28;20030;-76
2023/04/26 05:30:58;;;;;;;0.77;0.32;;;5.90;99.90;;;;;;5021954;28;20561;-73
2023/04/26 05:33:24;;;;;;;1.48;0.68;;;6.20;99.90;;;;;;5020964;28;20033;-74
2023/04/26 05:35:52;;;;;;;0.43;0.20;;;6.50;99.30;;;;;;5021798;28;20096;-76
2023/04/26 05:38:18;;;;;;;1.27;0.30;;;6.60;99.00;;;;;;5023618;28;20057;-75
2023/04/26 05:40:44;;;;;;;1.10;0.47;;;6.50;99.00;;;;;;5020762;28;20029;-75
2023/04/26 05:43:10;;;;;;;0.70;0.40;;;6.40;99.10;;;;;;5022906;28;20047;-75
2023/04/26 05:45:36;;;;;;;0.90;0.35;;;6.20;99.70;;;;;;5023316;28;20045;-75
2023/04/26 05:48:02;;;;;;;1.70;0.57;;;6.40;98.70;;;;;;5021326;28;20033;-73
2023/04/26 05:50:27;;;;;;;1.60;0.80;;;6.60;98.30;;;;;;5022404;28;20030;-74
2023/04/26 05:52:53;;;;;;;1.35;0.50;;;6.70;98.40;;;;;;5021945;28;20044;-74
2023/04/26 05:55:20;;;;;;;1.80;0.45;;;6.80;98.30;;;;;;5022370;28;20589;-76
2023/04/26 05:57:46;;;;;;;1.70;0.38;;;6.70;98.70;;;;;;5020785;28;20396;-74
2023/04/26 06:00:12;;;;;;;1.55;0.52;;;6.70;99.30;;;;;;5022146;28;20025;-75
2023/04/26 06:02:38;;;;;;;1.08;0.43;;;6.90;98.60;;;;;;5020878;28;20064;-74
2023/04/26 06:05:05;;;;;;;1.83;0.45;;;7.10;98.30;;;;;;5022491;28;20439;-74
2023/04/26 06:07:31;;;;;;;0.22;0.20;;;7.20;97.80;;;;;;5021876;28;20049;-78
2023/04/26 06:09:57;;;;;;;1.02;0.43;;;7.30;98.40;;;;;;5021551;28;20048;-75
2023/04/26 06:12:22;;;;;;;1.65;0.40;;;7.50;98.00;;;;;;5021814;28;20476;-76
2023/04/26 06:14:48;;;;;;;0.52;0.30;;;7.60;97.80;;;;;;5021720;28;20048;-75
2023/04/26 06:17:14;;;;;;;0.82;0.45;;;7.80;97.10;;;;;;5021662;28;20102;-74
2023/04/26 06:19:39;;;;;;;1.13;0.38;;;7.80;98.60;;;;;;5018092;28;20112;-74
2023/04/26 06:22:05;;;;;;;1.10;0.30;;;8.00;98.70;;;;;;5020111;28;20036;-76
2023/04/26 06:24:31;;;;;;;2.83;0.30;;;8.20;97.60;;;;;;5021102;28;20037;-75
2023/04/26 06:26:56;;;;;;;1.00;0.40;;;8.50;97.10;;;;;;5020669;28;20380;-77
2023/04/26 06:29:22;;;;;;;1.02;0.40;;;8.90;97.00;;;;;;5021335;28;20079;-76
2023/04/26 06:31:48;;;;;;;1.33;0.63;;;9.00;96.80;;;;;;5021520;28;20025;-75
2023/04/26 06:34:13;;;;;;;1.45;0.40;;;9.10;97.70;;;;;;5022256;28;20496;-76
2023/04/26 06:36:39;;;;;;;1.52;0.40;;;9.40;97.70;;;;;;5014801;28;20033;-76
2023/04/26 06:39:05;;;;;;;2.97;0.40;;;9.40;97.20;;;;;;5008926;28;20040;-76
2023/04/26 06:41:30;;;;;;;0.80;0.25;;;9.60;96.90;;;;;;5008182;28;20388;-76
2023/04/26 06:43:56;;;;;;;0.60;0.25;;;10.00;96.60;;;;;;5009845;28;20460;-75
2023/04/26 06:46:21;;;;;;;0.57;0.32;;;10.00;93.40;;;;;;5010683;28;20120;-75
2023/04/26 06:48:47;;;;;;;0.88;0.40;;;10.00;93.20;;;;;;5007817;28;20384;-76
2023/04/26 06:51:13;;;;;;;0.50;0.30;;;10.30;92.80;;;;;;5014952;28;20487;-75
2023/04/26 06:53:40;;;;;;;0.38;0.20;;;10.60;92.40;;;;;;5013073;28;20030;-75
2023/04/26 06:56:06;;;;;;;1.35;0.43;;;10.90;91.70;;;;;;5009005;28;20029;-76
2023/04/26 06:58:31;;;;;;;0.55;0.20;;;11.40;91.90;;;;;;5007110;28;20034;-76
2023/04/26 07:01:00;;;;;;;1.02;0.40;;;12.70;91.40;;;;;;5012163;28;20029;-76
2023/04/26 07:03:25;;;;;;;1.35;0.52;;;13.50;88.60;;;;;;5019915;28;20022;-76
2023/04/26 07:05:51;;;;;;;2.20;0.40;;;15.10;85.50;;;;;;5009164;28;20033;-76
2023/04/26 07:08:17;;;;;;;0.40;0.13;;;16.60;85.00;;;;;;5008608;28;20037;-76
2023/04/26 07:10:42;;;;;;;2.88;0.50;;;17.30;79.70;;;;;;5014660;28;20543;-76
2023/04/26 07:13:09;;;;;;;1.35;0.50;;;18.30;77.10;;;;;;5015491;28;20033;-76
2023/04/26 07:15:35;;;;;;;3.88;0.73;;;18.20;78.70;;;;;;5017077;28;20946;-75
2023/04/26 07:18:01;;;;;;;1.30;0.65;;;18.70;77.80;;;;;;5013134;28;20037;-76
2023/04/26 07:20:26;;;;;;;0.80;0.20;;;18.80;76.70;;;;;;5014268;28;20087;-76
2023/04/26 07:22:52;;;;;;;0.38;0.22;;;18.00;74.80;;;;;;5011621;28;20046;-75
2023/04/26 07:25:18;;;;;;;0.95;0.60;;;18.00;75.50;;;;;;5009350;28;20036;-75
2023/04/26 07:27:43;;;;;;;0.70;0.40;;;17.90;75.60;;;;;;5008873;28;20042;-76
2023/04/26 07:30:09;;;;;;;0.80;0.40;;;19.20;75.00;;;;;;5012834;28;20180;-75
2023/04/26 07:32:35;;;;;;;0.65;0.22;;;18.60;73.50;;;;;;5020756;28;20841;-73
2023/04/26 07:35:06;;;;;;;1.17;0.45;;;18.90;74.00;;;;;;5018347;28;20072;-74
2023/04/26 07:37:31;;;;;;;0.52;0.30;;;18.60;75.00;;;;;;5020556;28;20456;-74
2023/04/26 07:39:57;;;;;;;2.03;0.40;;;18.30;73.10;;;;;;5014491;28;20035;-74
2023/04/26 07:42:23;;;;;;;1.15;0.57;;;15.40;78.20;;;;;;5018895;28;20642;-74
2023/04/26 07:44:48;;;;;;;1.52;0.50;;;13.40;81.30;;;;;;5018802;28;20056;-74
2023/04/26 07:47:14;;;;;;;3.38;0.50;;;12.40;84.90;;;;;;5022431;28;20047;-74
2023/04/26 07:49:40;;;;;;;1.65;0.50;;;11.70;85.90;;;;;;5022363;28;20033;-74
2023/04/26 07:52:07;;;;;;;2.25;0.50;;;11.50;88.90;;;;;;5021214;28;20578;-74
2023/04/26 07:54:33;;;;;;;1.23;0.45;;;11.40;89.10;;;;;;5023796;28;20682;-74
2023/04/26 07:56:59;;;;;;;1.27;0.50;;;11.30;87.80;;;;;;5022361;28;20025;-73
2023/04/26 07:59:25;;;;;;;1.35;0.32;;;11.40;89.30;;;;;;5024014;28;20021;-73
2023/04/26 08:01:51;;;;;;;1.77;0.50;;;11.30;88.80;;;;;;5023077;28;20037;-73
2023/04/26 08:04:29;;;;;;;2.25;0.40;;;11.10;90.00;;;;;;5021597;28;20109;-73
2023/04/26 08:06:55;;;;;;;1.75;0.30;;;11.30;90.10;;;;;;5022785;28;20632;-75
2023/04/26 08:09:21;;;;;;;1.83;0.80;;;11.50;89.70;;;;;;5022681;28;20069;-74
2023/04/26 08:11:46;;;;;;;3.10;0.52;;;11.40;90.20;;;;;;5021905;28;20087;-74
2023/04/26 08:14:12;;;;;;;0.88;0.50;;;11.30;90.00;;;;;;5022497;28;20040;-73
2023/04/26 08:16:38;;;;;;;0.95;0.50;;;11.20;89.50;;;;;;5023397;28;20041;-73
2023/04/26 08:19:03;;;;;;;1.67;0.43;;;11.40;90.50;;;;;;5020934;28;20029;-73
2023/04/26 08:21:29;;;;;;;2.55;0.50;;;11.30;89.10;;;;;;5023580;28;20053;-74
2023/04/26 08:23:55;;;;;;;1.70;0.45;;;11.50;89.60;;;;;;5024272;28;20031;-75
2023/04/26 08:26:21;;;;;;;1.80;0.22;;;11.80;90.00;;;;;;5021231;28;20036;-75
2023/04/26 08:28:46;;;;;;;0.50;0.30;;;12.90;89.10;;;;;;5022939;28;20076;-75
2023/04/26 08:31:12;;;;;;;1.08;0.35;;;15.70;85.10;;;;;;5027721;28;20108;-74
2023/04/26 08:33:38;;;;;;;2.55;0.60;;;17.30;82.60;;;;;;5025235;28;20096;-75
2023/04/26 08:36:04;;;;;;;1.58;0.47;;;17.10;79.30;;;;;;5026022;28;20364;-74
2023/04/26 08:38:31;;;;;;;2.15;0.60;;;17.90;80.80;;;;;;5027630;28;20087;-74
2023/04/26 08:41:00;;;;;;;2.78;0.60;;;17.80;79.80;;;;;;5026270;28;20030;-75
2023/04/26 08:43:27;;;;;;;1.70;0.47;;;18.10;79.60;;;;;;5026061;28;20051;-74
2023/04/26 08:45:54;;;;;;;1.63;0.47;;;18.00;77.70;;;;;;5025711;28;20732;-75
2023/04/26 08:48:20;;;;;;;1.02;0.63;;;17.80;80.20;;;;;;5027562;28;20041;-75
2023/04/26 08:50:47;;;;;;;1.85;0.77;;;18.20;79.60;;;;;;5025718;28;20036;-75
2023/04/26 08:53:15;;;;;;;1.17;0.45;;;17.50;77.10;;;;;;5021396;28;20041;-75
2023/04/26 08:55:46;;;;;;;0.73;0.32;;;17.10;78.60;;;;;;5026138;28;20126;-74
2023/04/26 08:58:12;;;;;;;3.33;0.85;;;16.40;80.50;;;;;;5025871;28;20025;-74
2023/04/26 09:00:38;;;;;;;2.83;0.30;;;15.60;80.30;;;;;;5026831;28;20040;-75
2023/04/26 09:03:03;;;;;;;1.13;0.50;;;14.90;80.80;;;;;;5027368;28;20029;-76
2023/04/26 09:05:29;;;;;;;2.80;0.73;;;14.40;81.90;;;;;;5024827;28;20092;-74
2023/04/26 09:08:01;;;;;;;1.23;0.70;;;14.30;84.30;;;;;;5021244;28;20045;-75
2023/04/26 09:10:26;;;;;;;0.82;0.35;;;14.50;85.60;;;;;;5024264;28;20025;-75
2023/04/26 09:12:53;;;;;;;0.85;0.35;;;14.20;81.80;;;;;;5025892;28;20033;-74
2023/04/26 09:15:21;;;;;;;0.80;0.30;;;14.30;82.80;;;;;;5024719;28;20036;-75
2023/04/26 09:17:48;;;;;;;0.75;0.30;;;14.50;81.90;;;;;;5022419;28;20084;-74
2023/04/26 09:20:28;;;;;;;1.15;0.47;;;14.40;81.30;;;;;;5025672;28;20450;-75
2023/04/26 09:23:05;;;;;;;0.90;0.20;;;14.80;80.80;;;;;;5023588;28;20099;-74
2023/04/26 09:25:32;;;;;;;1.08;0.30;;;15.00;79.90;;;;;;5024217;28;20036;-75
2023/04/26 09:27:58;;;;;;;2.75;0.52;;;15.00;82.30;;;;;;5023527;28;20506;-75
2023/04/26 09:30:26;;;;;;;0.55;0.32;;;14.80;79.30;;;;;;5022629;28;20029;-76
2023/04/26 09:32:56;;;;;;;4.70;0.55;;;14.80;81.10;;;;;;5025078;28;20156;-74
2023/04/26 09:35:26;;;;;;;1.00;0.47;;;15.00;83.20;;;;;;5023654;28;20078;-75
2023/04/26 09:38:00;;;;;;;1.38;0.50;;;15.00;82.90;;;;;;5024504;28;20033;-75
2023/04/26 09:40:28;;;;;;;2.58;0.50;;;15.00;83.00;;;;;;5022329;28;20059;-74
2023/04/26 09:43:08;;;;;;;1.88;0.30;;;15.10;81.10;;;;;;5025364;28;20038;-76
2023/04/26 09:45:46;;;;;;;1.15;0.50;;;15.50;79.60;;;;;;5022591;28;20506;-76
2023/04/26 09:48:21;;;;;;;1.40;0.57;;;15.60;80.80;;;;;;5024087;28;20450;-76
2023/04/26 09:50:47;;;;;;;1.00;0.40;;;15.40;80.10;;;;;;5022796;28;20083;-77
2023/04/26 09:53:28;;;;;;;2.40;0.57;;;15.60;82.50;;;;;;5021593;28;20037;-77
2023/04/26 09:55:55;;;;;;;1.48;0.68;;;15.50;81.60;;;;;;5023496;28;20487;-76
2023/04/26 09:58:22;;;;;;;2.22;0.77;;;15.30;79.80;;;;;;5024328;28;20484;-75
2023/04/26 10:00:50;;;;;;;1.23;0.50;;;15.80;81.50;;;;;;5022400;28;20637;-75
2023/04/26 10:03:21;;;;;;;1.52;0.40;;;16.40;79.50;;;;;;5021938;28;20038;-75
2023/04/26 10:05:47;;;;;;;2.38;0.45;;;16.10;79.50;;;;;;5024795;28;20591;-75
2023/04/26 10:08:13;;;;;;;1.00;0.55;;;16.30;84.20;;;;;;5023497;28;20169;-74
2023/04/26 10:10:40;;;;;;;1.33;0.50;;;16.30;77.70;;;;;;5023747;28;20033;-75
2023/04/26 10:13:07;;;;;;;1.75;0.68;;;16.40;79.80;;;;;;5025199;28;20987;-75
2023/04/26 10:15:33;;;;;;;0.52;0.30;;;16.50;80.00;;;;;;5022757;28;20034;-75
2023/04/26 10:17:59;;;;;;;1.38;0.60;;;16.60;80.00;;;;;;5022916;28;20506;-76
2023/04/26 10:20:28;;;;;;;1.13;0.30;;;17.10;81.10;;;;;;5024641;28;20022;-75
2023/04/26 10:23:00;;;;;;;1.77;0.22;;;17.20;80.30;;;;;;5022066;28;20034;-75
2023/04/26 10:25:40;;;;;;;1.05;0.50;;;17.20;80.80;;;;;;5021272;28;20022;-76
2023/04/26 10:28:07;;;;;;;1.33;0.40;;;16.90;76.70;;;;;;5020271;28;20064;-75
2023/04/26 10:30:52;;;;;;;0.55;0.28;;;17.20;79.10;;;;;;5024308;28;20467;-76
2023/04/26 10:33:19;;;;;;;0.75;0.22;;;17.40;77.90;;;;;;5024071;28;20101;-76
2023/04/26 10:36:08;;;;;;;2.97;0.60;;;17.50;78.30;;;;;;5023109;28;20018;-76
2023/04/26 10:38:36;;;;;;;0.68;0.20;;;17.60;76.20;;;;;;5022927;28;20025;-75
2023/04/26 10:41:28;;;;;;;1.40;0.30;;;17.60;74.00;;;;;;5022774;28;20077;-75
2023/04/26 10:43:54;;;;;;;2.65;0.32;;;17.50;76.70;;;;;;5023507;28;20029;-75
2023/04/26 10:46:39;;;;;;;0.45;0.20;;;17.50;75.40;;;;;;5023757;28;20420;-75
2023/04/26 10:49:16;;;;;;;1.33;0.30;;;17.70;74.10;;;;;;5022804;28;20038;-76
2023/04/26 10:52:09;;;;;;;1.00;0.40;;;17.60;75.30;;;;;;5020796;28;20033;-75
2023/04/26 10:54:48;;;;;;;1.45;0.32;;;17.60;73.30;;;;;;5023206;28;20037;-75
2023/04/26 10:57:14;;;;;;;1.23;0.40;;;18.20;76.10;;;;;;5023026;28;20102;-75
2023/04/26 11:00:13;;;;;;;1.23;0.32;;;18.20;73.90;;;;;;5023877;28;20033;-75
2023/04/26 11:02:51;;;;;;;1.83;0.30;;;17.60;70.90;;;;;;5020637;28;20040;-74
2023/04/26 11:05:41;;;;;;;0.85;0.52;;;18.00;76.20;;;;;;5020752;28;20029;-76
2023/04/26 11:08:13;;;;;;;1.23;0.35;;;17.90;74.50;;;;;;5021504;28;20025;-76
2023/04/26 11:10:39;;;;;;;1.17;0.25;;;18.00;75.40;;;;;;5026351;28;20082;-75
2023/04/26 11:13:06;;;;;;;0.95;0.20;;;18.30;73.80;;;;;;5021629;28;20471;-75
2023/04/26 11:15:32;;;;;;;0.40;0.10;;;18.10;72.60;;;;;;5021794;28;20112;-76
2023/04/26 11:18:01;;;;;;;0.98;0.28;;;18.00;75.20;;;;;;5024556;28;20439;-76
2023/04/26 11:20:32;;;;;;;3.22;0.30;;;18.50;75.40;;;;;;5023885;28;20056;-75
2023/04/26 11:22:58;;;;;;;0.40;0.28;;;18.70;74.50;;;;;;5021134;28;21095;-76
2023/04/26 11:25:28;;;;;;;0.93;0.35;;;18.70;72.00;;;;;;5021353;28;20108;-76
2023/04/26 11:28:01;;;;;;;0.88;0.35;;;18.90;71.70;;;;;;5023100;28;20934;-76
2023/04/26 11:30:30;;;;;;;0.77;0.30;;;18.90;73.30;;;;;;5023045;28;20033;-75
2023/04/26 11:32:57;;;;;;;0.52;0.30;;;18.90;71.70;;;;;;5022881;28;23829;-74
2023/04/26 11:35:24;;;;;;;1.38;0.52;;;19.00;71.20;;;;;;5023434;28;20037;-76
2023/04/26 11:37:51;;;;;;;0.47;0.20;;;18.90;71.10;;;;;;5021491;28;20084;-75
2023/04/26 11:40:17;;;;;;;1.30;0.45;;;19.00;72.20;;;;;;5022830;28;20542;-75
2023/04/26 11:42:46;;;;;;;1.85;0.40;;;19.10;71.80;;;;;;5024375;28;20108;-76
2023/04/26 11:45:15;;;;;;;2.13;0.30;;;19.30;71.70;;;;;;5021265;28;20037;-76
2023/04/26 11:47:41;;;;;;;0.98;0.35;;;19.00;71.60;;;;;;5021160;28;20044;-76
2023/04/26 11:50:08;;;;;;;1.40;0.40;;;19.40;74.80;;;;;;5023803;28;20069;-77
2023/04/26 11:52:35;;;;;;;0.93;0.30;;;19.40;73.80;;;;;;5019046;28;20029;-75
2023/04/26 11:55:05;;;;;;;1.00;0.32;;;19.20;72.10;;;;;;5011054;28;20037;-76
2023/04/26 11:57:32;;;;;;;0.93;0.50;;;19.30;71.60;;;;;;5008160;28;20018;-76
2023/04/26 12:00:14;;;;;;;0.77;0.22;;;19.30;72.00;;;;;;5005425;28;20121;-75
2023/04/26 12:02:50;;;;;;;2.22;0.40;;;19.50;71.40;;;;;;5016232;28;20021;-75
2023/04/26 12:05:23;;;;;;;2.80;0.30;;;19.60;71.90;;;;;;5011431;28;20365;-76
2023/04/26 12:07:54;;;;;;;0.70;0.20;;;19.40;70.90;;;;;;5015022;28;20038;-76
2023/04/26 12:10:30;;;;;;;1.52;0.30;;;19.70;73.00;;;;;;5012579;28;20092;-76
2023/04/26 12:12:58;;;;;;;0.65;0.22;;;19.60;71.40;;;;;;5011528;28;20034;-75
2023/04/26 12:15:33;;;;;;;0.82;0.30;;;19.60;72.70;;;;;;5011662;28;20022;-76
2023/04/26 12:18:05;;;;;;;1.30;0.45;;;19.70;70.80;;;;;;5013127;28;20632;-75
2023/04/26 12:20:35;;;;;;;0.88;0.22;;;19.80;71.30;;;;;;5011684;28;20033;-76
2023/04/26 12:23:05;;;;;;;0.57;0.30;;;19.90;71.00;;;;;;5018982;28;20160;-76
2023/04/26 12:25:32;;;;;;;1.70;0.40;;;20.20;72.80;;;;;;5020993;28;20415;-76
2023/04/26 12:27:59;;;;;;;0.75;0.30;;;20.20;70.40;;;;;;5018098;28;20094;-76
2023/04/26 12:30:26;;;;;;;0.52;0.22;;;20.10;70.20;;;;;;5015468;28;20079;-76
2023/04/26 12:32:52;;;;;;;1.27;0.52;;;20.10;71.20;;;;;;5011720;28;20052;-76
2023/04/26 12:35:17;;;;;;;1.38;0.63;;;20.10;71.30;;;;;;5010982;28;20388;-76
2023/04/26 12:37:43;;;;;;;1.90;0.30;;;20.30;72.50;;;;;;5018334;28;20026;-76
2023/04/26 12:40:10;;;;;;;0.90;0.40;;;20.30;70.90;;;;;;5018925;28;20029;-77
2023/04/26 12:42:36;;;;;;;1.48;0.50;;;20.30;69.30;;;;;;5013109;28;20396;-76
2023/04/26 12:45:02;;;;;;;3.00;0.60;;;20.30;71.90;;;;;;5018425;28;20049;-76
2023/04/26 12:47:30;;;;;;;1.20;0.50;;;20.10;70.80;;;;;;5009367;28;20037;-76
2023/04/26 12:49:57;;;;;;;2.35;0.70;;;20.20;70.40;;;;;;5013077;28;20033;-77
2023/04/26 12:52:24;;;;;;;1.80;0.47;;;20.40;71.30;;;;;;5017464;28;20108;-76
2023/04/26 12:54:50;;;;;;;2.63;0.60;;;20.40;70.40;;;;;;5008850;28;20037;-76